Time;durP1;ratioP1;P1;durP2;ratioP2;P2;SDS_P1;SDS_P2;PMS_P1;PMS_P2;Temp;Humidity;BMP_temperature;BMP_pressure;BME280_temperature;BME280_humidity;BME280_pressure;Samples;Min_cycle;Max_cycle;Signal;HPM_P1;HPM_P2
2024/03/20 00:00:33;;;;;;;20.37;18.37;;;5.00;1.00;;;;;;4812916;29;20202;-52
2024/03/20 00:02:59;;;;;;;21.05;18.98;;;4.90;1.00;;;;;;4806982;29;20251;-50
2024/03/20 00:05:24;;;;;;;21.83;19.80;;;4.90;1.00;;;;;;4812804;29;20272;-48
2024/03/20 00:07:50;;;;;;;22.03;19.60;;;4.80;1.00;;;;;;4814122;29;20194;-51
2024/03/20 00:10:16;;;;;;;22.47;20.20;;;4.80;1.00;;;;;;4812263;29;20316;-53
2024/03/20 00:12:42;;;;;;;21.27;19.27;;;4.70;9.10;;;;;;4811450;29;20244;-53
2024/03/20 00:15:08;;;;;;;22.45;20.15;;;4.70;44.60;;;;;;4810332;29;20479;-53
2024/03/20 00:17:35;;;;;;;22.55;20.25;;;4.60;87.90;;;;;;4814126;29;20308;-52
2024/03/20 00:20:03;;;;;;;20.70;18.53;;;4.60;99.90;;;;;;4801389;29;20302;-53
2024/03/20 00:22:30;;;;;;;20.58;18.52;;;4.60;99.90;;;;;;4809536;29;20420;-50
2024/03/20 00:24:56;;;;;;;21.08;18.98;;;4.50;99.90;;;;;;4808097;29;20745;-54
2024/03/20 00:27:21;;;;;;;21.63;19.47;;;4.50;99.90;;;;;;4813776;29;20190;-54
2024/03/20 00:29:48;;;;;;;21.50;19.20;;;4.40;99.90;;;;;;4803164;29;20237;-38
2024/03/20 00:32:13;;;;;;;21.98;19.50;;;4.40;99.90;;;;;;4806069;29;20198;-38
2024/03/20 00:34:39;;;;;;;22.83;20.20;;;4.40;99.90;;;;;;4808518;29;20209;-39
2024/03/20 00:37:04;;;;;;;20.73;18.57;;;4.40;99.90;;;;;;4801642;29;20213;-37
2024/03/20 00:39:30;;;;;;;22.50;20.20;;;4.30;99.90;;;;;;4807019;29;20208;-39
2024/03/20 00:41:56;;;;;;;20.73;18.60;;;4.30;99.90;;;;;;4811750;29;20195;-38
2024/03/20 00:44:21;;;;;;;22.77;19.50;;;4.30;99.90;;;;;;4801450;29;20209;-37
2024/03/20 00:46:47;;;;;;;21.23;19.10;;;4.30;99.90;;;;;;4813471;29;20590;-37
2024/03/20 00:49:12;;;;;;;22.87;20.57;;;4.30;99.90;;;;;;4801680;29;20209;-37
2024/03/20 00:51:38;;;;;;;23.30;20.00;;;4.30;99.90;;;;;;4807703;29;20227;-39
2024/03/20 00:54:04;;;;;;;25.40;20.43;;;4.20;99.90;;;;;;4807291;29;20225;-37
2024/03/20 00:56:29;;;;;;;24.17;21.00;;;4.20;99.90;;;;;;4812163;29;20213;-39
2024/03/20 00:58:55;;;;;;;21.33;19.07;;;4.30;99.90;;;;;;4803350;29;20194;-39
2024/03/20 01:01:21;;;;;;;19.87;17.80;;;4.20;99.90;;;;;;4813052;29;20196;-54
2024/03/20 01:03:46;;;;;;;21.00;18.83;;;4.20;99.90;;;;;;4812066;29;20193;-53
2024/03/20 01:06:12;;;;;;;22.07;19.80;;;4.20;99.90;;;;;;4809150;29;20327;-51
2024/03/20 01:08:40;;;;;;;21.50;19.37;;;4.20;99.90;;;;;;4805501;29;20186;-54
2024/03/20 01:11:06;;;;;;;21.20;18.98;;;4.20;99.90;;;;;;4807663;29;20213;-54
2024/03/20 01:13:31;;;;;;;21.53;19.33;;;4.20;99.90;;;;;;4811461;29;20241;-53
2024/03/20 01:15:57;;;;;;;22.73;20.30;;;4.20;99.90;;;;;;4803000;29;20448;-55
2024/03/20 01:18:23;;;;;;;26.20;20.30;;;4.20;99.90;;;;;;4808493;29;20266;-52
2024/03/20 01:20:48;;;;;;;22.13;19.97;;;4.20;99.90;;;;;;4805441;29;20285;-53
2024/03/20 01:23:15;;;;;;;21.90;19.50;;;4.20;99.90;;;;;;4814947;29;20218;-53
2024/03/20 01:25:41;;;;;;;21.73;19.10;;;4.20;99.90;;;;;;4801180;29;20206;-54
2024/03/20 01:28:06;;;;;;;21.63;19.43;;;4.10;99.90;;;;;;4813433;29;20650;-53
2024/03/20 01:30:32;;;;;;;23.33;20.03;;;4.10;99.90;;;;;;4808227;29;20475;-44
2024/03/20 01:32:58;;;;;;;21.77;19.50;;;4.10;99.90;;;;;;4812818;29;20551;-53
2024/03/20 01:35:23;;;;;;;22.67;20.27;;;4.00;99.90;;;;;;4808111;29;20189;-51
2024/03/20 01:37:49;;;;;;;22.67;20.30;;;4.00;99.90;;;;;;4814925;29;20665;-54
2024/03/20 01:40:16;;;;;;;22.20;19.00;;;4.00;1.00;;;;;;4787243;29;20443;-52
2024/03/20 01:42:41;;;;;;;22.83;19.98;;;4.00;1.00;;;;;;4786960;29;20206;-52
2024/03/20 01:45:18;;;;;;;22.03;19.80;;;4.00;1.00;;;;;;4803932;29;20220;-53
2024/03/20 01:47:46;;;;;;;22.00;19.80;;;3.90;1.00;;;;;;4806567;29;20193;-51
2024/03/20 01:50:14;;;;;;;21.98;19.80;;;3.90;1.00;;;;;;4781687;29;20305;-45
2024/03/20 01:52:50;;;;;;;21.67;19.50;;;3.90;1.00;;;;;;4808993;29;20365;-53
2024/03/20 01:55:15;;;;;;;24.63;21.13;;;3.90;1.00;;;;;;4802205;29;20556;-52
2024/03/20 01:57:41;;;;;;;21.10;19.03;;;3.90;1.00;;;;;;4806797;29;20182;-53
2024/03/20 02:00:07;;;;;;;21.73;19.50;;;3.90;1.00;;;;;;4809511;29;20476;-50
2024/03/20 02:02:33;;;;;;;21.42;19.23;;;3.90;1.00;;;;;;4800406;29;20729;-49
2024/03/20 02:04:58;;;;;;;21.57;19.33;;;3.90;1.00;;;;;;4808175;29;20250;-47
2024/03/20 02:07:24;;;;;;;20.90;19.00;;;3.80;1.00;;;;;;4799054;29;20650;-48
2024/03/20 02:09:49;;;;;;;22.20;19.90;;;3.80;1.00;;;;;;4813019;29;20569;-37
2024/03/20 02:12:15;;;;;;;21.43;19.23;;;3.80;1.00;;;;;;4806544;29;20276;-37
2024/03/20 02:14:41;;;;;;;22.73;20.10;;;3.80;1.00;;;;;;4803737;29;20721;-54
2024/03/20 02:17:06;;;;;;;21.00;18.90;;;3.80;1.00;;;;;;4796953;29;20206;-48
2024/03/20 02:19:32;;;;;;;22.77;20.20;;;3.80;1.00;;;;;;4811036;29;20218;-48
2024/03/20 02:21:58;;;;;;;22.80;19.37;;;3.80;1.00;;;;;;4797696;29;20425;-53
2024/03/20 02:24:23;;;;;;;21.93;19.30;;;3.80;1.00;;;;;;4795671;29;20202;-49
2024/03/20 02:26:49;;;;;;;23.60;20.03;;;3.80;1.00;;;;;;4796457;29;20436;-37
2024/03/20 02:29:15;;;;;;;20.63;18.47;;;3.80;1.00;;;;;;4795767;29;20259;-52
2024/03/20 02:31:40;;;;;;;23.83;20.23;;;3.80;1.00;;;;;;4799341;29;20181;-51
2024/03/20 02:34:06;;;;;;;22.37;20.00;;;3.80;1.00;;;;;;4800003;29;20213;-51
2024/03/20 02:36:31;;;;;;;21.47;19.20;;;3.80;1.00;;;;;;4795150;29;20201;-53
2024/03/20 02:38:57;;;;;;;21.60;19.47;;;3.70;1.00;;;;;;4794476;29;20194;-51
2024/03/20 02:41:23;;;;;;;21.97;19.80;;;3.70;1.00;;;;;;4795827;29;20194;-49
2024/03/20 02:43:49;;;;;;;20.23;18.30;;;3.70;1.00;;;;;;4794899;29;21174;-51
2024/03/20 02:46:14;;;;;;;22.23;19.83;;;3.70;1.00;;;;;;4794883;29;20285;-52
2024/03/20 02:48:40;;;;;;;23.00;20.60;;;3.70;1.00;;;;;;4795586;29;20273;-48
2024/03/20 02:51:05;;;;;;;21.50;19.33;;;3.70;1.00;;;;;;4795111;29;20214;-53
2024/03/20 02:53:31;;;;;;;21.33;19.23;;;3.60;1.00;;;;;;4802768;29;20729;-51
2024/03/20 02:55:57;;;;;;;25.17;20.27;;;3.60;1.00;;;;;;4808723;29;20280;-50
2024/03/20 02:58:22;;;;;;;22.67;20.07;;;3.60;1.00;;;;;;4803393;29;20186;-50
2024/03/20 03:00:48;;;;;;;21.50;19.50;;;3.60;1.00;;;;;;4809591;29;20198;-49
2024/03/20 03:03:13;;;;;;;24.90;18.83;;;3.60;1.00;;;;;;4804250;29;20981;-49
2024/03/20 03:05:39;;;;;;;22.70;20.37;;;3.60;1.00;;;;;;4805477;29;20193;-52
2024/03/20 03:08:05;;;;;;;21.13;18.33;;;3.60;1.00;;;;;;4805763;29;20250;-54
2024/03/20 03:10:31;;;;;;;24.77;19.57;;;3.60;1.00;;;;;;4807582;29;20218;-38
2024/03/20 03:12:56;;;;;;;21.77;19.40;;;3.60;1.00;;;;;;4805645;29;20439;-37
2024/03/20 03:15:22;;;;;;;21.00;19.00;;;3.60;1.00;;;;;;4802806;29;20242;-38
2024/03/20 03:17:53;;;;;;;22.23;19.60;;;3.60;1.00;;;;;;4804922;29;20204;-38
2024/03/20 03:20:21;;;;;;;21.13;18.88;;;3.60;1.00;;;;;;4802431;29;20190;-37
2024/03/20 03:22:46;;;;;;;21.83;19.40;;;3.60;1.00;;;;;;4808086;29;20255;-38
2024/03/20 03:25:12;;;;;;;24.17;18.93;;;3.50;1.00;;;;;;4803264;29;20234;-40
2024/03/20 03:27:39;;;;;;;27.75;19.63;;;3.50;1.00;;;;;;4807688;29;20205;-37
2024/03/20 03:30:08;;;;;;;22.65;20.35;;;3.50;1.00;;;;;;4800891;29;20209;-39
2024/03/20 03:32:34;;;;;;;21.20;18.90;;;3.50;3.50;;;;;;4803664;29;20209;-37
2024/03/20 03:34:59;;;;;;;21.63;19.42;;;3.50;12.50;;;;;;4804290;29;20182;-39
2024/03/20 03:37:25;;;;;;;23.20;19.13;;;3.50;47.70;;;;;;4795738;29;20194;-39
2024/03/20 03:39:52;;;;;;;21.70;19.40;;;3.50;39.50;;;;;;4794937;29;20190;-38
2024/03/20 03:42:19;;;;;;;22.10;19.80;;;3.40;68.30;;;;;;4801835;29;20193;-38
2024/03/20 03:44:44;;;;;;;22.10;19.42;;;3.40;69.10;;;;;;4795590;29;20198;-39
2024/03/20 03:47:10;;;;;;;21.47;19.37;;;3.40;99.90;;;;;;4800871;29;20208;-37
2024/03/20 03:49:36;;;;;;;20.67;18.53;;;3.30;99.90;;;;;;4804359;29;20190;-40
2024/03/20 03:52:03;;;;;;;20.53;18.47;;;3.30;99.90;;;;;;4796952;29;20642;-39
2024/03/20 03:54:29;;;;;;;21.98;19.67;;;3.30;99.90;;;;;;4802365;29;20991;-37
2024/03/20 03:56:54;;;;;;;21.47;19.00;;;3.30;99.90;;;;;;4804080;29;20196;-39
2024/03/20 03:59:20;;;;;;;21.63;19.37;;;3.30;99.90;;;;;;4801250;29;20199;-37
2024/03/20 04:01:47;;;;;;;21.10;19.10;;;3.30;99.90;;;;;;4809844;29;20190;-39
2024/03/20 04:04:13;;;;;;;21.73;19.58;;;3.20;99.90;;;;;;4798919;29;20198;-37
2024/03/20 04:06:39;;;;;;;21.13;18.37;;;3.20;99.90;;;;;;4811146;29;20194;-37
2024/03/20 04:09:05;;;;;;;20.67;18.65;;;3.20;99.90;;;;;;4800914;29;20534;-37
2024/03/20 04:11:31;;;;;;;24.60;20.60;;;3.10;1.00;;;;;;4806369;29;20826;-38
2024/03/20 04:13:57;;;;;;;21.13;18.92;;;3.10;1.00;;;;;;4797206;29;20477;-37
2024/03/20 04:16:23;;;;;;;22.38;20.15;;;3.10;1.00;;;;;;4803406;29;20228;-37
2024/03/20 04:18:49;;;;;;;22.60;20.07;;;3.10;1.00;;;;;;4798537;29;20305;-37
2024/03/20 04:21:14;;;;;;;21.40;19.30;;;3.10;1.00;;;;;;4808858;29;20292;-38
2024/03/20 04:23:40;;;;;;;21.20;19.00;;;3.00;1.00;;;;;;4800308;29;20189;-38
2024/03/20 04:26:06;;;;;;;21.33;19.13;;;3.00;1.00;;;;;;4797083;29;20456;-37
2024/03/20 04:28:32;;;;;;;20.37;18.37;;;2.90;1.00;;;;;;4803326;29;20197;-38
2024/03/20 04:30:58;;;;;;;21.75;19.52;;;2.90;1.00;;;;;;4810968;29;20637;-37
2024/03/20 04:33:24;;;;;;;21.13;18.90;;;2.80;1.00;;;;;;4800909;29;20263;-37
2024/03/20 04:35:49;;;;;;;21.30;19.17;;;2.80;1.00;;;;;;4780787;29;20452;-37
2024/03/20 04:38:15;;;;;;;22.03;19.60;;;2.80;18.50;;;;;;4804813;29;20186;-37
2024/03/20 04:40:40;;;;;;;22.47;19.17;;;2.80;11.70;;;;;;4812911;29;20193;-37
2024/03/20 04:43:06;;;;;;;21.43;19.20;;;2.70;99.90;;;;;;4798966;29;20205;-36
2024/03/20 04:45:32;;;;;;;21.00;18.90;;;2.70;99.90;;;;;;4813866;29;20610;-36
2024/03/20 04:47:57;;;;;;;21.20;18.90;;;2.70;99.90;;;;;;4804320;29;20247;-37
2024/03/20 04:50:23;;;;;;;24.93;20.63;;;2.70;99.90;;;;;;4797660;29;20254;-37
2024/03/20 04:52:49;;;;;;;20.50;18.20;;;2.70;99.90;;;;;;4808157;29;20184;-38
2024/03/20 04:55:14;;;;;;;22.87;18.60;;;2.60;99.90;;;;;;4801092;29;20202;-38
2024/03/20 04:57:40;;;;;;;21.17;19.13;;;2.60;99.90;;;;;;4811728;29;20356;-37
2024/03/20 05:00:24;;;;;;;20.00;17.90;;;2.50;99.90;;;;;;4807618;29;20190;-38
2024/03/20 05:02:49;;;;;;;22.10;19.75;;;2.50;99.90;;;;;;4798516;29;20655;-37
2024/03/20 05:05:15;;;;;;;20.73;18.27;;;2.50;1.00;;;;;;4798144;29;20202;-37
2024/03/20 05:07:40;;;;;;;22.77;20.07;;;2.40;1.00;;;;;;4800262;29;20229;-38
2024/03/20 05:10:06;;;;;;;24.87;19.30;;;2.40;1.00;;;;;;4802783;29;20842;-36
2024/03/20 05:12:32;;;;;;;22.07;19.67;;;2.40;1.00;;;;;;4811948;29;20193;-38
2024/03/20 05:14:59;;;;;;;23.23;18.63;;;2.40;99.90;;;;;;4791041;29;21013;-51
2024/03/20 05:17:25;;;;;;;25.55;19.23;;;2.50;99.90;;;;;;4802202;29;20711;-53
2024/03/20 05:19:50;;;;;;;21.17;18.87;;;2.50;99.90;;;;;;4797616;29;20198;-49
2024/03/20 05:22:16;;;;;;;21.70;19.20;;;2.50;99.90;;;;;;4804779;29;21024;-50
2024/03/20 05:24:42;;;;;;;21.53;18.70;;;2.50;99.90;;;;;;4807962;29;20198;-50
2024/03/20 05:27:08;;;;;;;22.07;19.87;;;2.50;99.90;;;;;;4807357;29;20197;-55
2024/03/20 05:29:34;;;;;;;21.33;19.03;;;2.50;99.90;;;;;;4802818;29;20186;-37
2024/03/20 05:31:59;;;;;;;21.13;19.13;;;2.50;99.90;;;;;;4801927;29;20954;-37
2024/03/20 05:34:25;;;;;;;22.20;19.40;;;2.50;99.90;;;;;;4804361;29;20191;-49
2024/03/20 05:36:51;;;;;;;22.87;19.90;;;2.60;99.90;;;;;;4804771;29;20423;-52
2024/03/20 05:39:16;;;;;;;21.90;18.80;;;2.60;99.90;;;;;;4801391;29;20239;-49
2024/03/20 05:41:42;;;;;;;25.40;19.77;;;2.60;99.90;;;;;;4807021;29;20205;-45
2024/03/20 05:44:07;;;;;;;23.03;20.60;;;2.60;99.90;;;;;;4807039;29;20696;-52
2024/03/20 05:46:33;;;;;;;22.00;18.50;;;2.60;99.90;;;;;;4812785;29;20193;-50
2024/03/20 05:48:59;;;;;;;25.23;20.23;;;2.70;99.90;;;;;;4802173;29;20606;-52
2024/03/20 05:51:25;;;;;;;23.47;19.00;;;2.70;99.90;;;;;;4808837;29;20221;-52
2024/03/20 05:53:51;;;;;;;27.40;20.45;;;2.70;99.90;;;;;;4809031;29;20456;-46
2024/03/20 05:56:17;;;;;;;24.30;19.70;;;2.70;1.00;;;;;;4808660;29;20265;-53
2024/03/20 05:58:43;;;;;;;23.33;20.65;;;2.80;1.00;;;;;;4789246;29;20198;-49
2024/03/20 06:01:09;;;;;;;23.07;20.17;;;2.80;1.00;;;;;;4794303;29;20200;-44
2024/03/20 06:03:35;;;;;;;24.07;21.70;;;2.90;1.00;;;;;;4805879;29;20427;-52
2024/03/20 06:06:01;;;;;;;22.35;20.08;;;3.00;1.00;;;;;;4808278;29;20327;-53
2024/03/20 06:08:28;;;;;;;25.63;20.50;;;3.00;99.90;;;;;;4811688;29;20189;-54
2024/03/20 06:10:55;;;;;;;24.15;19.63;;;3.10;99.90;;;;;;4809353;29;21232;-38
2024/03/20 06:13:20;;;;;;;21.27;18.63;;;3.10;99.90;;;;;;4805998;29;20188;-38
2024/03/20 06:15:46;;;;;;;22.87;18.90;;;3.20;99.90;;;;;;4810387;29;20646;-36
2024/03/20 06:18:12;;;;;;;21.60;19.30;;;3.30;99.90;;;;;;4811666;29;20194;-37
2024/03/20 06:20:38;;;;;;;22.92;19.70;;;3.40;99.90;;;;;;4785238;29;20297;-38
2024/03/20 06:23:04;;;;;;;23.50;19.80;;;3.50;62.90;;;;;;4811844;29;20574;-38
2024/03/20 06:25:29;;;;;;;21.33;19.13;;;3.50;1.00;;;;;;4802347;29;20198;-39
2024/03/20 06:27:55;;;;;;;28.23;21.37;;;3.60;1.00;;;;;;4803151;29;20201;-37
2024/03/20 06:30:23;;;;;;;27.40;21.03;;;3.70;1.00;;;;;;4808570;29;20209;-38
2024/03/20 06:32:49;;;;;;;22.30;19.77;;;3.80;1.00;;;;;;4809112;29;20651;-37
2024/03/20 06:35:16;;;;;;;20.53;18.30;;;3.90;1.00;;;;;;4788154;29;20191;-37
2024/03/20 06:37:41;;;;;;;24.35;21.45;;;3.90;1.00;;;;;;4811652;29;20209;-39
2024/03/20 06:40:11;;;;;;;24.57;19.87;;;4.00;99.90;;;;;;4802374;29;20277;-38
2024/03/20 06:42:37;;;;;;;21.27;18.88;;;4.10;99.90;;;;;;4811494;29;20186;-38
2024/03/20 06:45:06;;;;;;;21.92;19.05;;;4.20;99.60;;;;;;4807542;29;20182;-39
2024/03/20 06:47:32;;;;;;;31.05;21.13;;;4.30;99.50;;;;;;4807879;29;20466;-38
2024/03/20 06:49:59;;;;;;;22.80;20.43;;;4.40;99.10;;;;;;4794443;29;20210;-37
2024/03/20 06:52:25;;;;;;;24.73;20.67;;;4.50;98.60;;;;;;4799910;29;20943;-38
2024/03/20 06:54:51;;;;;;;22.65;19.23;;;4.60;98.40;;;;;;4795741;29;20218;-37
2024/03/20 06:57:18;;;;;;;22.35;19.92;;;4.70;98.40;;;;;;4794480;29;20194;-39
2024/03/20 06:59:50;;;;;;;22.20;19.80;;;4.90;98.40;;;;;;4802954;29;20238;-38
2024/03/20 07:02:16;;;;;;;23.92;21.35;;;5.00;97.50;;;;;;4801317;29;20195;-37
2024/03/20 07:04:42;;;;;;;22.17;19.90;;;5.10;97.10;;;;;;4810364;29;20224;-38
2024/03/20 07:07:11;;;;;;;23.23;19.27;;;5.20;96.70;;;;;;4811163;29;20190;-37
2024/03/20 07:09:37;;;;;;;25.45;20.35;;;5.30;96.30;;;;;;4811284;29;20225;-38
2024/03/20 07:12:03;;;;;;;23.20;19.20;;;5.50;96.00;;;;;;4801506;29;20284;-41
2024/03/20 07:14:30;;;;;;;23.65;19.58;;;5.60;95.70;;;;;;4793777;29;20252;-38
2024/03/20 07:16:56;;;;;;;22.30;19.20;;;5.70;95.40;;;;;;4807526;29;21217;-37
2024/03/20 07:19:22;;;;;;;22.13;19.73;;;5.80;95.30;;;;;;4798926;29;20681;-38
2024/03/20 07:21:48;;;;;;;22.03;19.40;;;5.90;94.80;;;;;;4806821;29;20419;-38
2024/03/20 07:24:13;;;;;;;22.90;19.43;;;6.10;94.50;;;;;;4802545;29;20538;-38
2024/03/20 07:26:39;;;;;;;22.43;19.13;;;6.30;94.70;;;;;;4799080;29;20198;-37
2024/03/20 07:29:10;;;;;;;21.83;19.53;;;6.50;93.70;;;;;;4810852;29;20225;-38
2024/03/20 07:31:37;;;;;;;22.17;19.97;;;6.60;93.50;;;;;;4799706;29;20877;-38
2024/03/20 07:34:03;;;;;;;23.00;20.13;;;6.70;92.60;;;;;;4810738;29;21049;-38
2024/03/20 07:36:29;;;;;;;24.27;20.53;;;6.90;92.30;;;;;;4801421;29;20781;-40
2024/03/20 07:38:55;;;;;;;21.57;19.37;;;7.00;91.80;;;;;;4800182;29;20538;-38
2024/03/20 07:41:22;;;;;;;23.10;19.80;;;7.20;91.50;;;;;;4802833;29;21033;-38
2024/03/20 07:43:47;;;;;;;22.20;19.93;;;7.30;90.80;;;;;;4791948;29;20620;-40
2024/03/20 07:46:13;;;;;;;21.07;18.90;;;7.40;90.50;;;;;;4804628;29;20428;-37
2024/03/20 07:48:49;;;;;;;24.13;20.93;;;7.50;89.70;;;;;;4802363;29;21392;-38
2024/03/20 07:51:17;;;;;;;23.37;19.90;;;7.60;89.30;;;;;;4806423;29;20667;-38
2024/03/20 07:53:42;;;;;;;20.87;18.90;;;7.60;87.50;;;;;;4810389;29;21006;-38
2024/03/20 07:56:08;;;;;;;22.47;20.27;;;7.70;87.40;;;;;;4807636;29;20526;-38
2024/03/20 07:58:34;;;;;;;22.07;19.87;;;7.90;87.10;;;;;;4810447;29;20205;-48
2024/03/20 08:01:00;;;;;;;20.33;18.43;;;8.00;86.70;;;;;;4810050;29;20888;-53
2024/03/20 08:03:26;;;;;;;21.73;19.17;;;8.10;85.50;;;;;;4795932;29;20453;-50
2024/03/20 08:05:53;;;;;;;22.30;20.20;;;8.30;85.30;;;;;;4810117;29;20438;-51
2024/03/20 08:08:18;;;;;;;21.93;19.73;;;8.50;84.50;;;;;;4813330;29;20430;-49
2024/03/20 08:10:45;;;;;;;23.03;20.60;;;8.70;83.10;;;;;;4812380;29;20482;-45
2024/03/20 08:13:10;;;;;;;22.93;20.47;;;8.90;82.60;;;;;;4803522;29;20816;-53
2024/03/20 08:15:39;;;;;;;22.00;19.73;;;9.10;80.30;;;;;;4794335;29;20439;-51
2024/03/20 08:18:05;;;;;;;22.73;20.47;;;9.30;80.10;;;;;;4805446;29;20510;-54
2024/03/20 08:20:31;;;;;;;21.63;19.33;;;9.50;79.30;;;;;;4795387;29;20455;-50
2024/03/20 08:22:56;;;;;;;23.70;21.20;;;9.80;78.70;;;;;;4801527;29;20486;-48
2024/03/20 08:25:22;;;;;;;22.00;18.90;;;10.10;75.70;;;;;;4813594;29;20611;-46
2024/03/20 08:27:47;;;;;;;23.80;19.83;;;10.30;73.80;;;;;;4809822;29;20264;-51
2024/03/20 08:30:13;;;;;;;22.30;20.10;;;10.50;73.20;;;;;;4813102;29;20439;-51
2024/03/20 08:32:39;;;;;;;20.00;18.07;;;10.90;72.20;;;;;;4810725;29;20251;-39
2024/03/20 08:35:07;;;;;;;19.50;17.80;;;11.10;68.50;;;;;;4813058;29;20475;-38
2024/03/20 08:37:34;;;;;;;21.70;19.50;;;11.40;68.70;;;;;;4812020;29;20540;-47
2024/03/20 08:40:01;;;;;;;21.10;19.20;;;11.80;67.90;;;;;;4812183;29;20941;-54
2024/03/20 08:42:27;;;;;;;21.40;19.37;;;12.40;65.90;;;;;;4813092;29;20438;-51
2024/03/20 08:44:53;;;;;;;22.03;20.03;;;13.00;63.30;;;;;;4812852;29;20488;-46
2024/03/20 08:47:19;;;;;;;22.40;20.33;;;13.60;60.60;;;;;;4805012;29;20839;-48
2024/03/20 08:49:44;;;;;;;21.40;19.30;;;14.30;57.90;;;;;;4810838;29;20638;-52
2024/03/20 08:52:12;;;;;;;21.00;19.10;;;14.60;54.30;;;;;;4806807;29;20606;-50
2024/03/20 08:54:42;;;;;;;22.63;20.73;;;14.90;52.90;;;;;;4811835;29;20185;-50
2024/03/20 08:57:08;;;;;;;20.97;19.10;;;15.20;50.90;;;;;;4807554;29;20855;-41
2024/03/20 08:59:34;;;;;;;22.30;20.40;;;15.70;49.50;;;;;;4812539;29;20514;-41
2024/03/20 09:02:00;;;;;;;21.63;19.70;;;16.00;48.10;;;;;;4810052;29;20186;-41
2024/03/20 09:04:26;;;;;;;22.20;20.30;;;16.40;47.00;;;;;;4811652;29;20442;-38
2024/03/20 09:06:52;;;;;;;23.90;21.73;;;16.20;45.10;;;;;;4810829;29;20430;-40
2024/03/20 09:09:17;;;;;;;21.87;19.97;;;16.70;44.90;;;;;;4811128;29;20519;-38
2024/03/20 09:11:43;;;;;;;22.03;20.20;;;17.10;44.60;;;;;;4812245;29;20210;-41
2024/03/20 09:14:08;;;;;;;22.60;20.70;;;17.30;43.20;;;;;;4803679;29;20238;-38
2024/03/20 09:16:34;;;;;;;21.37;19.67;;;17.80;41.90;;;;;;4798592;29;20197;-40
2024/03/20 09:19:00;;;;;;;20.27;18.67;;;18.20;40.90;;;;;;4811222;29;20289;-39
2024/03/20 09:21:27;;;;;;;21.20;19.50;;;18.60;38.80;;;;;;4812389;29;20190;-38
2024/03/20 09:23:53;;;;;;;21.13;19.27;;;19.00;34.10;;;;;;4801489;29;21129;-43
2024/03/20 09:26:20;;;;;;;22.47;20.63;;;19.20;99.90;;;;;;4812335;29;20441;-41
2024/03/20 09:28:46;;;;;;;21.60;19.70;;;19.30;99.90;;;;;;4812909;29;20198;-54
2024/03/20 09:31:11;;;;;;;20.40;18.80;;;19.70;99.90;;;;;;4812237;29;20470;-48
2024/03/20 09:33:37;;;;;;;19.30;17.80;;;20.10;99.90;;;;;;4804445;29;20200;-53
2024/03/20 09:36:03;;;;;;;20.27;18.67;;;20.30;99.90;;;;;;4812511;29;20646;-53
2024/03/20 09:38:29;;;;;;;22.03;20.23;;;20.40;99.90;;;;;;4805993;29;20605;-46
2024/03/20 09:40:58;;;;;;;20.67;19.00;;;20.80;99.90;;;;;;4812439;29;20527;-45
2024/03/20 09:43:24;;;;;;;21.07;19.37;;;21.40;99.90;;;;;;4808055;29;20638;-55
2024/03/20 09:45:51;;;;;;;20.93;19.23;;;21.60;99.90;;;;;;4812005;29;20427;-53
2024/03/20 09:48:17;;;;;;;19.87;18.27;;;22.00;99.90;;;;;;4809519;29;20193;-50
2024/03/20 09:50:42;;;;;;;19.73;18.17;;;22.50;99.90;;;;;;4812073;29;20541;-44
2024/03/20 09:53:08;;;;;;;19.23;17.73;;;22.40;99.90;;;;;;4810976;29;20255;-42
2024/03/20 09:55:37;;;;;;;19.83;18.23;;;22.20;99.90;;;;;;4812243;29;20542;-39
2024/03/20 09:58:03;;;;;;;20.97;19.27;;;22.30;99.90;;;;;;4807700;29;20456;-39
2024/03/20 10:00:29;;;;;;;20.40;18.90;;;22.60;99.90;;;;;;4806111;29;20997;-40
2024/03/20 10:02:56;;;;;;;17.90;16.60;;;22.70;99.90;;;;;;4803850;29;20442;-39
2024/03/20 10:05:22;;;;;;;18.87;17.37;;;23.20;99.90;;;;;;4805995;29;20780;-43
2024/03/20 10:07:48;;;;;;;19.50;18.00;;;23.70;99.90;;;;;;4812066;29;20506;-39
2024/03/20 10:10:15;;;;;;;19.83;18.43;;;23.80;99.90;;;;;;4811983;29;20573;-38
2024/03/20 10:12:41;;;;;;;19.23;17.73;;;24.00;99.90;;;;;;4801225;29;20902;-41
2024/03/20 10:15:10;;;;;;;20.10;18.50;;;24.70;99.90;;;;;;4807356;29;20535;-42
2024/03/20 10:17:37;;;;;;;18.50;17.10;;;24.60;99.90;;;;;;4811868;29;20870;-42
2024/03/20 10:20:19;;;;;;;19.10;17.67;;;24.10;99.90;;;;;;4806275;29;20802;-39
2024/03/20 10:22:45;;;;;;;19.77;18.27;;;24.00;99.90;;;;;;4802307;29;20419;-39
2024/03/20 10:25:13;;;;;;;20.10;18.50;;;23.60;99.90;;;;;;4808742;29;20770;-39
2024/03/20 10:27:40;;;;;;;19.83;18.20;;;23.10;99.90;;;;;;4807886;29;20431;-38
2024/03/20 10:30:17;;;;;;;19.73;18.13;;;22.90;99.90;;;;;;4810371;29;20957;-40
2024/03/20 10:32:48;;;;;;;20.47;18.80;;;23.30;99.90;;;;;;4811537;29;20622;-43
2024/03/20 10:35:15;;;;;;;19.90;18.10;;;23.60;99.90;;;;;;4800214;29;20438;-41
2024/03/20 10:37:44;;;;;;;18.70;17.40;;;23.90;99.90;;;;;;4811343;29;20441;-44
2024/03/20 10:40:16;;;;;;;18.70;17.30;;;23.60;99.90;;;;;;4801399;29;20465;-41
2024/03/20 10:42:46;;;;;;;19.50;17.90;;;23.20;99.90;;;;;;4810406;29;20461;-38
2024/03/20 10:45:13;;;;;;;18.77;17.40;;;22.80;99.90;;;;;;4802322;29;20433;-39
2024/03/20 10:47:40;;;;;;;18.10;16.47;;;22.30;99.90;;;;;;4810569;29;20446;-42
2024/03/20 10:50:24;;;;;;;18.53;17.03;;;22.30;99.90;;;;;;4807980;29;20565;-45
2024/03/20 10:52:50;;;;;;;18.40;17.10;;;21.80;99.90;;;;;;4810880;29;20419;-42
2024/03/20 10:55:18;;;;;;;18.13;16.83;;;21.50;99.90;;;;;;4805938;29;20431;-44
2024/03/20 10:57:51;;;;;;;17.93;16.60;;;21.20;99.90;;;;;;4807335;29;20423;-39
2024/03/20 11:00:19;;;;;;;19.20;17.70;;;21.40;99.90;;;;;;4807218;29;21018;-40
2024/03/20 11:02:46;;;;;;;18.20;16.80;;;21.80;99.90;;;;;;4805990;29;20977;-42
2024/03/20 11:05:38;;;;;;;18.20;16.70;;;21.90;99.90;;;;;;4808928;29;20439;-46
2024/03/20 11:08:09;;;;;;;17.73;16.33;;;22.10;99.90;;;;;;4810938;29;20439;-44
2024/03/20 11:10:35;;;;;;;17.83;16.43;;;22.00;99.90;;;;;;4807480;29;20851;-40
2024/03/20 11:13:02;;;;;;;18.40;17.00;;;22.30;99.90;;;;;;4800998;29;20430;-42
2024/03/20 11:15:29;;;;;;;17.73;16.43;;;22.40;99.90;;;;;;4799677;29;20537;-38
2024/03/20 11:17:55;;;;;;;17.30;16.00;;;22.40;99.90;;;;;;4806115;29;20432;-41
2024/03/20 11:20:34;;;;;;;18.40;17.00;;;22.50;99.90;;;;;;4798459;29;20435;-40
2024/03/20 11:23:06;;;;;;;18.67;17.07;;;22.50;99.90;;;;;;4811157;29;21052;-42
2024/03/20 11:25:35;;;;;;;16.77;15.47;;;22.20;99.90;;;;;;4799638;29;20427;-38
2024/03/20 11:28:01;;;;;;;16.70;15.40;;;22.10;99.90;;;;;;4804517;29;20789;-53
2024/03/20 11:30:27;;;;;;;17.17;15.63;;;22.30;99.90;;;;;;4807038;29;20847;-51
2024/03/20 11:32:53;;;;;;;17.50;16.10;;;22.40;99.90;;;;;;4810651;29;20577;-49
2024/03/20 11:35:19;;;;;;;15.60;14.50;;;22.60;99.90;;;;;;4805906;29;20213;-50
2024/03/20 11:37:44;;;;;;;16.20;14.77;;;23.00;99.90;;;;;;4810704;29;20427;-48
2024/03/20 11:40:14;;;;;;;16.80;15.63;;;23.40;99.90;;;;;;4809523;29;20212;-49
2024/03/20 11:42:40;;;;;;;17.87;16.57;;;23.50;99.90;;;;;;4814511;29;20710;-50
2024/03/20 11:45:10;;;;;;;17.23;15.97;;;23.60;99.90;;;;;;4811951;29;20526;-51
2024/03/20 11:47:37;;;;;;;17.23;15.97;;;23.80;99.90;;;;;;4813639;29;20431;-53
2024/03/20 11:50:03;;;;;;;17.63;16.33;;;23.50;99.90;;;;;;4803136;29;20470;-52
2024/03/20 11:52:28;;;;;;;15.23;14.10;;;23.10;99.90;;;;;;4813843;29;20436;-53
2024/03/20 11:54:55;;;;;;;16.53;15.33;;;22.70;99.90;;;;;;4810157;29;20201;-51
2024/03/20 11:57:23;;;;;;;17.60;16.20;;;22.30;99.90;;;;;;4813741;29;20186;-51
2024/03/20 11:59:51;;;;;;;17.37;15.77;;;21.90;99.90;;;;;;4811171;29;20864;-50
2024/03/20 12:02:24;;;;;;;16.63;15.43;;;21.80;99.90;;;;;;4805639;29;20435;-49
2024/03/20 12:04:50;;;;;;;16.27;15.17;;;21.50;99.90;;;;;;4811226;29;20767;-53
2024/03/20 12:07:28;;;;;;;18.33;16.87;;;21.50;99.90;;;;;;4809506;29;20423;-52
2024/03/20 12:09:55;;;;;;;17.27;15.87;;;21.60;99.90;;;;;;4805328;29;20230;-50
2024/03/20 12:12:24;;;;;;;16.37;15.17;;;21.80;99.90;;;;;;4813520;29;20435;-52
2024/03/20 12:14:50;;;;;;;17.53;16.03;;;21.70;99.90;;;;;;4807965;29;20478;-54
2024/03/20 12:17:17;;;;;;;17.17;15.87;;;21.90;99.90;;;;;;4810946;29;20469;-50
2024/03/20 12:19:43;;;;;;;17.60;16.20;;;21.90;99.90;;;;;;4813668;29;20929;-49
2024/03/20 12:22:13;;;;;;;17.47;16.17;;;22.40;99.90;;;;;;4810694;29;20423;-50
2024/03/20 12:24:39;;;;;;;16.53;15.30;;;23.00;99.90;;;;;;4813258;29;20728;-50
2024/03/20 12:27:05;;;;;;;17.50;16.20;;;23.30;99.90;;;;;;4811990;29;20487;-47
2024/03/20 12:29:31;;;;;;;17.77;16.27;;;23.60;99.90;;;;;;4813554;29;20987;-50
2024/03/20 12:31:56;;;;;;;18.00;16.70;;;23.90;99.90;;;;;;4801733;29;20582;-49